sensor_id;sensor_type;location;lat;lon;timestamp;pressure;altitude;pressure_sealevel;temperature
79756;BMP280;69239;50.678;12.280;2024-01-15T00:01:07;95833.06;;;0.26
79756;BMP280;69239;50.678;12.280;2024-01-15T00:03:32;95816.00;;;0.25
79756;BMP280;69239;50.678;12.280;2024-01-15T00:05:58;95830.13;;;0.33
79756;BMP280;69239;50.678;12.280;2024-01-15T00:08:23;95818.06;;;0.29
79756;BMP280;69239;50.678;12.280;2024-01-15T00:10:48;95810.28;;;0.29
79756;BMP280;69239;50.678;12.280;2024-01-15T00:13:14;95807.28;;;0.21
79756;BMP280;69239;50.678;12.280;2024-01-15T00:15:39;95794.41;;;0.16
79756;BMP280;69239;50.678;12.280;2024-01-15T00:18:05;95815.06;;;0.35
79756;BMP280;69239;50.678;12.280;2024-01-15T00:20:30;95813.53;;;0.34
79756;BMP280;69239;50.678;12.280;2024-01-15T00:22:55;95802.41;;;0.34
79756;BMP280;69239;50.678;12.280;2024-01-15T00:25:21;95788.53;;;0.30
79756;BMP280;69239;50.678;12.280;2024-01-15T00:27:46;95786.50;;;0.26
79756;BMP280;69239;50.678;12.280;2024-01-15T00:30:12;95789.09;;;0.26
79756;BMP280;69239;50.678;12.280;2024-01-15T00:32:37;95757.47;;;0.11
79756;BMP280;69239;50.678;12.280;2024-01-15T00:35:03;95801.47;;;0.30
79756;BMP280;69239;50.678;12.280;2024-01-15T00:37:28;95796.38;;;0.24
79756;BMP280;69239;50.678;12.280;2024-01-15T00:39:55;95812.59;;;0.30
79756;BMP280;69239;50.678;12.280;2024-01-15T00:42:20;95801.06;;;0.22
79756;BMP280;69239;50.678;12.280;2024-01-15T00:44:45;95816.00;;;0.25
79756;BMP280;69239;50.678;12.280;2024-01-15T00:47:11;95796.97;;;0.16
79756;BMP280;69239;50.678;12.280;2024-01-15T00:49:36;95805.66;;;0.25
79756;BMP280;69239;50.678;12.280;2024-01-15T00:52:01;95825.38;;;0.21
79756;BMP280;69239;50.678;12.280;2024-01-15T00:54:27;95804.69;;;0.21
79756;BMP280;69239;50.678;12.280;2024-01-15T00:56:52;95807.28;;;0.21
79756;BMP280;69239;50.678;12.280;2024-01-15T00:59:17;95789.84;;;0.08
79756;BMP280;69239;50.678;12.280;2024-01-15T01:01:43;95792.63;;;0.12
79756;BMP280;69239;50.678;12.280;2024-01-15T01:04:09;95807.75;;;0.23
79756;BMP280;69239;50.678;12.280;2024-01-15T01:06:35;95812.47;;;0.21
79756;BMP280;69239;50.678;12.280;2024-01-15T01:09:00;95798.84;;;0.11
79756;BMP280;69239;50.678;12.280;2024-01-15T01:11:26;95806.56;;;0.16
79756;BMP280;69239;50.678;12.280;2024-01-15T01:13:51;95800.72;;;0.05
79756;BMP280;69239;50.678;12.280;2024-01-15T01:16:16;95826.25;;;0.12
79756;BMP280;69239;50.678;12.280;2024-01-15T01:18:42;95834.50;;;0.14
79756;BMP280;69239;50.678;12.280;2024-01-15T01:21:07;95810.44;;;-0.06
79756;BMP280;69239;50.678;12.280;2024-01-15T01:23:32;95832.28;;;0.07
79756;BMP280;69239;50.678;12.280;2024-01-15T01:25:58;95809.66;;;-0.06
79756;BMP280;69239;50.678;12.280;2024-01-15T01:28:23;95820.22;;;-0.03
79756;BMP280;69239;50.678;12.280;2024-01-15T01:30:49;95826.16;;;-0.02
79756;BMP280;69239;50.678;12.280;2024-01-15T01:33:14;95835.63;;;0.08
79756;BMP280;69239;50.678;12.280;2024-01-15T01:35:39;95821.97;;;0.02
79756;BMP280;69239;50.678;12.280;2024-01-15T01:38:05;95817.91;;;-0.04
79756;BMP280;69239;50.678;12.280;2024-01-15T01:40:30;95821.22;;;0.02
79756;BMP280;69239;50.678;12.280;2024-01-15T01:42:56;95817.34;;;-0.01
79756;BMP280;69239;50.678;12.280;2024-01-15T01:45:21;95816.38;;;-0.05
79756;BMP280;69239;50.678;12.280;2024-01-15T01:47:46;95822.03;;;-0.03
79756;BMP280;69239;50.678;12.280;2024-01-15T01:50:13;95810.00;;;-0.13
79756;BMP280;69239;50.678;12.280;2024-01-15T01:52:39;95810.22;;;-0.09
79756;BMP280;69239;50.678;12.280;2024-01-15T01:55:06;95806.56;;;-0.08
79756;BMP280;69239;50.678;12.280;2024-01-15T01:57:32;95819.44;;;-0.03
79756;BMP280;69239;50.678;12.280;2024-01-15T02:00:00;95800.97;;;-0.15
79756;BMP280;69239;50.678;12.280;2024-01-15T02:02:26;95812.31;;;-0.11
79756;BMP280;69239;50.678;12.280;2024-01-15T02:04:51;95825.94;;;-0.06
79756;BMP280;69239;50.678;12.280;2024-01-15T02:07:17;95803.81;;;-0.17
79756;BMP280;69239;50.678;12.280;2024-01-15T02:09:44;95810.78;;;-0.12
79756;BMP280;69239;50.678;12.280;2024-01-15T02:12:10;95802.63;;;-0.24
79756;BMP280;69239;50.678;12.280;2024-01-15T02:14:35;95811.09;;;-0.19
79756;BMP280;69239;50.678;12.280;2024-01-15T02:17:01;95817.31;;;-0.20
79756;BMP280;69239;50.678;12.280;2024-01-15T02:19:26;95818.13;;;-0.24
79756;BMP280;69239;50.678;12.280;2024-01-15T02:21:52;95799.13;;;-0.39
79756;BMP280;69239;50.678;12.280;2024-01-15T02:24:17;95828.19;;;-0.23
79756;BMP280;69239;50.678;12.280;2024-01-15T02:26:42;95822.28;;;-0.29
79756;BMP280;69239;50.678;12.280;2024-01-15T02:29:08;95804.75;;;-0.32
79756;BMP280;69239;50.678;12.280;2024-01-15T02:31:35;95810.19;;;-0.33
79756;BMP280;69239;50.678;12.280;2024-01-15T02:34:00;95822.03;;;-0.27
79756;BMP280;69239;50.678;12.280;2024-01-15T02:36:26;95817.44;;;-0.35
79756;BMP280;69239;50.678;12.280;2024-01-15T02:38:51;95816.16;;;-0.38
79756;BMP280;69239;50.678;12.280;2024-01-15T02:41:16;95806.44;;;-0.46
79756;BMP280;69239;50.678;12.280;2024-01-15T02:43:42;95798.22;;;-0.53
79756;BMP280;69239;50.678;12.280;2024-01-15T02:46:07;95800.25;;;-0.50
79756;BMP280;69239;50.678;12.280;2024-01-15T02:48:32;95815.69;;;-0.40
79756;BMP280;69239;50.678;12.280;2024-01-15T02:51:00;95802.25;;;-0.42
79756;BMP280;69239;50.678;12.280;2024-01-15T02:53:25;95814.66;;;-0.44
79756;BMP280;69239;50.678;12.280;2024-01-15T02:55:51;95808.25;;;-0.46
79756;BMP280;69239;50.678;12.280;2024-01-15T02:58:16;95818.09;;;-0.48
79756;BMP280;69239;50.678;12.280;2024-01-15T03:00:41;95766.47;;;-0.83
79756;BMP280;69239;50.678;12.280;2024-01-15T03:03:07;95815.81;;;-0.55
79756;BMP280;69239;50.678;12.280;2024-01-15T03:05:33;95794.97;;;-0.64
79756;BMP280;69239;50.678;12.280;2024-01-15T03:07:58;95818.13;;;-0.53
79756;BMP280;69239;50.678;12.280;2024-01-15T03:10:24;95791.06;;;-0.61
79756;BMP280;69239;50.678;12.280;2024-01-15T03:12:49;95783.84;;;-0.64
79756;BMP280;69239;50.678;12.280;2024-01-15T03:15:14;95792.91;;;-0.62
79756;BMP280;69239;50.678;12.280;2024-01-15T03:17:41;95770.56;;;-0.76
79756;BMP280;69239;50.678;12.280;2024-01-15T03:20:08;95800.13;;;-0.64
79756;BMP280;69239;50.678;12.280;2024-01-15T03:22:33;95796.78;;;-0.64
79756;BMP280;69239;50.678;12.280;2024-01-15T03:24:58;95795.75;;;-0.63
79756;BMP280;69239;50.678;12.280;2024-01-15T03:27:24;95784.97;;;-0.70
79756;BMP280;69239;50.678;12.280;2024-01-15T03:29:51;95785.50;;;-0.73
79756;BMP280;69239;50.678;12.280;2024-01-15T03:32:16;95781.59;;;-0.71
79756;BMP280;69239;50.678;12.280;2024-01-15T03:34:41;95781.59;;;-0.71
79756;BMP280;69239;50.678;12.280;2024-01-15T03:37:07;95771.09;;;-0.79
79756;BMP280;69239;50.678;12.280;2024-01-15T03:39:32;95772.59;;;-0.73
79756;BMP280;69239;50.678;12.280;2024-01-15T03:41:57;95769.03;;;-0.77
79756;BMP280;69239;50.678;12.280;2024-01-15T03:44:23;95768.47;;;-0.74
79756;BMP280;69239;50.678;12.280;2024-01-15T03:46:48;95779.81;;;-0.70
79756;BMP280;69239;50.678;12.280;2024-01-15T03:49:13;95764.88;;;-0.78
79756;BMP280;69239;50.678;12.280;2024-01-15T03:51:39;95788.56;;;-0.71
79756;BMP280;69239;50.678;12.280;2024-01-15T03:54:04;95764.94;;;-0.84
79756;BMP280;69239;50.678;12.280;2024-01-15T03:56:30;95791.69;;;-0.69
79756;BMP280;69239;50.678;12.280;2024-01-15T03:58:55;95795.31;;;-0.70
79756;BMP280;69239;50.678;12.280;2024-01-15T04:01:20;95787.31;;;-0.74
79756;BMP280;69239;50.678;12.280;2024-01-15T04:03:46;95798.91;;;-0.71
79756;BMP280;69239;50.678;12.280;2024-01-15T04:06:11;95795.03;;;-0.69
79756;BMP280;69239;50.678;12.280;2024-01-15T04:08:36;95792.19;;;-0.72
79756;BMP280;69239;50.678;12.280;2024-01-15T04:11:02;95792.72;;;-0.70
79756;BMP280;69239;50.678;12.280;2024-01-15T04:13:27;95775.72;;;-0.76
79756;BMP280;69239;50.678;12.280;2024-01-15T04:15:52;95782.38;;;-0.70
79756;BMP280;69239;50.678;12.280;2024-01-15T04:18:18;95761.81;;;-0.80
79756;BMP280;69239;50.678;12.280;2024-01-15T04:20:43;95761.22;;;-0.72
79756;BMP280;69239;50.678;12.280;2024-01-15T04:23:09;95766.53;;;-0.64
79756;BMP280;69239;50.678;12.280;2024-01-15T04:25:34;95745.78;;;-0.77
79756;BMP280;69239;50.678;12.280;2024-01-15T04:28:00;95753.47;;;-0.72
79756;BMP280;69239;50.678;12.280;2024-01-15T04:30:25;95736.56;;;-0.89
79756;BMP280;69239;50.678;12.280;2024-01-15T04:32:51;95776.38;;;-0.66
79756;BMP280;69239;50.678;12.280;2024-01-15T04:35:16;95763.31;;;-0.74
79756;BMP280;69239;50.678;12.280;2024-01-15T04:37:42;95782.91;;;-0.73
79756;BMP280;69239;50.678;12.280;2024-01-15T04:40:07;95761.06;;;-0.86
79756;BMP280;69239;50.678;12.280;2024-01-15T04:42:33;95784.19;;;-0.71
79756;BMP280;69239;50.678;12.280;2024-01-15T04:44:59;95793.22;;;-0.68
79756;BMP280;69239;50.678;12.280;2024-01-15T04:47:24;95794.47;;;-0.66
79756;BMP280;69239;50.678;12.280;2024-01-15T04:49:49;95788.81;;;-0.68
79756;BMP280;69239;50.678;12.280;2024-01-15T04:52:15;95763.31;;;-0.74
79756;BMP280;69239;50.678;12.280;2024-01-15T04:54:40;95794.44;;;-0.61
79756;BMP280;69239;50.678;12.280;2024-01-15T04:57:06;95777.91;;;-0.65
79756;BMP280;69239;50.678;12.280;2024-01-15T04:59:32;95782.75;;;-0.58
79756;BMP280;69239;50.678;12.280;2024-01-15T05:01:57;95789.25;;;-0.61
79756;BMP280;69239;50.678;12.280;2024-01-15T05:04:23;95802.13;;;-0.56
79756;BMP280;69239;50.678;12.280;2024-01-15T05:06:50;95795.19;;;-0.60
79756;BMP280;69239;50.678;12.280;2024-01-15T05:09:15;95804.22;;;-0.58
79756;BMP280;69239;50.678;12.280;2024-01-15T05:11:41;95785.19;;;-0.67
79756;BMP280;69239;50.678;12.280;2024-01-15T05:14:06;95792.63;;;-0.60
79756;BMP280;69239;50.678;12.280;2024-01-15T05:16:31;95804.44;;;-0.54
79756;BMP280;69239;50.678;12.280;2024-01-15T05:18:57;95771.00;;;-0.69
79756;BMP280;69239;50.678;12.280;2024-01-15T05:21:22;95788.50;;;-0.61
79756;BMP280;69239;50.678;12.280;2024-01-15T05:23:47;95799.34;;;-0.64
79756;BMP280;69239;50.678;12.280;2024-01-15T05:26:13;95803.72;;;-0.60
79756;BMP280;69239;50.678;12.280;2024-01-15T05:28:41;95801.38;;;-0.56
79756;BMP280;69239;50.678;12.280;2024-01-15T05:31:06;95811.91;;;-0.52
79756;BMP280;69239;50.678;12.280;2024-01-15T05:33:32;95799.81;;;-0.57
79756;BMP280;69239;50.678;12.280;2024-01-15T05:35:57;95798.81;;;-0.61
79756;BMP280;69239;50.678;12.280;2024-01-15T05:38:24;95787.44;;;-0.60
79756;BMP280;69239;50.678;12.280;2024-01-15T05:40:49;95789.47;;;-0.57
79756;BMP280;69239;50.678;12.280;2024-01-15T05:43:15;95780.78;;;-0.66
79756;BMP280;69239;50.678;12.280;2024-01-15T05:45:42;95782.88;;;-0.68
79756;BMP280;69239;50.678;12.280;2024-01-15T05:48:08;95803.16;;;-0.57
79756;BMP280;69239;50.678;12.280;2024-01-15T05:50:33;95771.53;;;-0.72
79756;BMP280;69239;50.678;12.280;2024-01-15T05:52:59;95799.59;;;-0.61
79756;BMP280;69239;50.678;12.280;2024-01-15T05:55:24;95786.50;;;-0.69
79756;BMP280;69239;50.678;12.280;2024-01-15T05:57:49;95791.69;;;-0.69
79756;BMP280;69239;50.678;12.280;2024-01-15T06:00:17;95791.69;;;-0.69
79756;BMP280;69239;50.678;12.280;2024-01-15T06:02:43;95793.22;;;-0.68
79756;BMP280;69239;50.678;12.280;2024-01-15T06:05:09;95785.19;;;-0.67
79756;BMP280;69239;50.678;12.280;2024-01-15T06:07:35;95777.25;;;-0.75
79756;BMP280;69239;50.678;12.280;2024-01-15T06:10:01;95754.63;;;-0.84
79756;BMP280;69239;50.678;12.280;2024-01-15T06:12:27;95751.44;;;-0.75
79756;BMP280;69239;50.678;12.280;2024-01-15T06:14:56;95735.00;;;-0.85
79756;BMP280;69239;50.678;12.280;2024-01-15T06:17:22;95787.66;;;-0.57
79756;BMP280;69239;50.678;12.280;2024-01-15T06:19:47;95784.31;;;-0.57
79756;BMP280;69239;50.678;12.280;2024-01-15T06:22:13;95766.88;;;-0.70
79756;BMP280;69239;50.678;12.280;2024-01-15T06:24:39;95783.31;;;-0.61
79756;BMP280;69239;50.678;12.280;2024-01-15T06:27:04;95779.47;;;-0.64
79756;BMP280;69239;50.678;12.280;2024-01-15T06:29:30;95772.31;;;-0.72
79756;BMP280;69239;50.678;12.280;2024-01-15T06:31:56;95772.06;;;-0.70
79756;BMP280;69239;50.678;12.280;2024-01-15T06:36:48;95774.09;;;-0.67
79756;BMP280;69239;50.678;12.280;2024-01-15T06:39:14;95770.16;;;-0.65
79756;BMP280;69239;50.678;12.280;2024-01-15T06:41:39;95761.16;;;-0.67
79756;BMP280;69239;50.678;12.280;2024-01-15T06:44:12;95751.88;;;-0.68
79756;BMP280;69239;50.678;12.280;2024-01-15T06:46:45;95763.19;;;-0.64
79756;BMP280;69239;50.678;12.280;2024-01-15T06:49:11;95759.59;;;-0.63
79756;BMP280;69239;50.678;12.280;2024-01-15T06:51:37;95766.81;;;-0.65
79756;BMP280;69239;50.678;12.280;2024-01-15T06:54:02;95769.97;;;-0.68
79756;BMP280;69239;50.678;12.280;2024-01-15T06:56:28;95774.56;;;-0.65
79756;BMP280;69239;50.678;12.280;2024-01-15T06:58:53;95771.22;;;-0.66
79756;BMP280;69239;50.678;12.280;2024-01-15T07:01:18;95770.16;;;-0.65
79756;BMP280;69239;50.678;12.280;2024-01-15T07:03:44;95778.97;;;-0.66
79756;BMP280;69239;50.678;12.280;2024-01-15T07:06:10;95783.09;;;-0.65
79756;BMP280;69239;50.678;12.280;2024-01-15T07:08:36;95775.13;;;-0.68
79756;BMP280;69239;50.678;12.280;2024-01-15T07:11:04;95777.72;;;-0.68
79756;BMP280;69239;50.678;12.280;2024-01-15T07:13:29;95771.00;;;-0.69
79756;BMP280;69239;50.678;12.280;2024-01-15T07:15:55;95773.81;;;-0.66
79756;BMP280;69239;50.678;12.280;2024-01-15T07:18:20;95777.16;;;-0.65
79756;BMP280;69239;50.678;12.280;2024-01-15T07:20:45;95765.00;;;-0.65
79756;BMP280;69239;50.678;12.280;2024-01-15T07:23:11;95779.22;;;-0.62
79756;BMP280;69239;50.678;12.280;2024-01-15T07:25:37;95785.91;;;-0.61
79756;BMP280;69239;50.678;12.280;2024-01-15T07:28:03;95789.25;;;-0.61
79756;BMP280;69239;50.678;12.280;2024-01-15T07:30:29;95777.41;;;-0.62
79756;BMP280;69239;50.678;12.280;2024-01-15T07:32:56;95783.31;;;-0.61
79756;BMP280;69239;50.678;12.280;2024-01-15T07:35:32;95772.44;;;-0.58
79756;BMP280;69239;50.678;12.280;2024-01-15T07:38:03;95784.59;;;-0.59
79756;BMP280;69239;50.678;12.280;2024-01-15T07:40:29;95776.06;;;-0.59
79756;BMP280;69239;50.678;12.280;2024-01-15T07:42:57;95789.47;;;-0.57
79756;BMP280;69239;50.678;12.280;2024-01-15T07:45:23;95787.66;;;-0.57
79756;BMP280;69239;50.678;12.280;2024-01-15T07:47:49;95785.31;;;-0.53
79756;BMP280;69239;50.678;12.280;2024-01-15T07:50:15;95775.53;;;-0.56
79756;BMP280;69239;50.678;12.280;2024-01-15T07:52:40;95782.41;;;-0.46
79756;BMP280;69239;50.678;12.280;2024-01-15T07:55:09;95782.69;;;-0.48
79756;BMP280;69239;50.678;12.280;2024-01-15T07:57:34;95774.66;;;-0.46
79756;BMP280;69239;50.678;12.280;2024-01-15T08:00:02;95784.72;;;-0.45
79756;BMP280;69239;50.678;12.280;2024-01-15T08:02:29;95785.19;;;-0.43
79756;BMP280;69239;50.678;12.280;2024-01-15T08:04:54;95782.59;;;-0.43
79756;BMP280;69239;50.678;12.280;2024-01-15T08:07:20;95780.81;;;-0.42
79756;BMP280;69239;50.678;12.280;2024-01-15T08:09:45;95774.84;;;-0.43
79756;BMP280;69239;50.678;12.280;2024-01-15T08:12:13;95773.56;;;-0.40
79756;BMP280;69239;50.678;12.280;2024-01-15T08:14:38;95775.56;;;-0.37
79756;BMP280;69239;50.678;12.280;2024-01-15T08:17:04;95770.13;;;-0.36
79756;BMP280;69239;50.678;12.280;2024-01-15T08:19:29;95779.44;;;-0.35
79756;BMP280;69239;50.678;12.280;2024-01-15T08:21:55;95774.22;;;-0.30
79756;BMP280;69239;50.678;12.280;2024-01-15T08:24:20;95780.41;;;-0.25
79756;BMP280;69239;50.678;12.280;2024-01-15T08:26:45;95776.72;;;-0.19
79756;BMP280;69239;50.678;12.280;2024-01-15T08:29:11;95775.88;;;-0.15
79756;BMP280;69239;50.678;12.280;2024-01-15T08:31:36;95779.22;;;-0.14
79756;BMP280;69239;50.678;12.280;2024-01-15T08:34:02;95778.22;;;-0.13
79756;BMP280;69239;50.678;12.280;2024-01-15T08:36:28;95775.53;;;-0.08
79756;BMP280;69239;50.678;12.280;2024-01-15T08:38:55;95778.66;;;-0.06
79756;BMP280;69239;50.678;12.280;2024-01-15T08:41:21;95790.25;;;-0.04
79756;BMP280;69239;50.678;12.280;2024-01-15T08:43:46;95780.66;;;-0.03
79756;BMP280;69239;50.678;12.280;2024-01-15T08:46:13;95787.31;;;0.03
79756;BMP280;69239;50.678;12.280;2024-01-15T08:48:39;95779.50;;;0.08
79756;BMP280;69239;50.678;12.280;2024-01-15T08:51:05;95790.81;;;0.12
79756;BMP280;69239;50.678;12.280;2024-01-15T08:53:30;95778.41;;;0.14
79756;BMP280;69239;50.678;12.280;2024-01-15T08:55:56;95787.59;;;0.20
79756;BMP280;69239;50.678;12.280;2024-01-15T08:58:22;95783.47;;;0.19
79756;BMP280;69239;50.678;12.280;2024-01-15T09:00:48;95783.63;;;0.28
79756;BMP280;69239;50.678;12.280;2024-01-15T09:03:13;95792.84;;;0.34
79756;BMP280;69239;50.678;12.280;2024-01-15T09:05:38;95790.19;;;0.39
79756;BMP280;69239;50.678;12.280;2024-01-15T09:08:05;95795.59;;;0.43
79756;BMP280;69239;50.678;12.280;2024-01-15T09:10:31;95789.84;;;0.46
79756;BMP280;69239;50.678;12.280;2024-01-15T09:12:56;95781.03;;;0.47
79756;BMP280;69239;50.678;12.280;2024-01-15T09:15:22;95790.84;;;0.50
79756;BMP280;69239;50.678;12.280;2024-01-15T09:17:48;95791.31;;;0.52
79756;BMP280;69239;50.678;12.280;2024-01-15T09:20:14;95792.84;;;0.53
79756;BMP280;69239;50.678;12.280;2024-01-15T09:22:39;95787.97;;;0.51
79756;BMP280;69239;50.678;12.280;2024-01-15T09:25:10;95801.19;;;0.50
79756;BMP280;69239;50.678;12.280;2024-01-15T09:27:36;95790.84;;;0.50
79756;BMP280;69239;50.678;12.280;2024-01-15T09:30:02;95791.38;;;0.47
79756;BMP280;69239;50.678;12.280;2024-01-15T09:32:28;95806.91;;;0.47
79756;BMP280;69239;50.678;12.280;2024-01-15T09:34:53;95800.97;;;0.46
79756;BMP280;69239;50.678;12.280;2024-01-15T09:37:19;95810.53;;;0.46
79756;BMP280;69239;50.678;12.280;2024-01-15T09:39:44;95799.44;;;0.45
79756;BMP280;69239;50.678;12.280;2024-01-15T09:42:10;95806.56;;;0.53
79756;BMP280;69239;50.678;12.280;2024-01-15T09:44:36;95789.69;;;0.56
79756;BMP280;69239;50.678;12.280;2024-01-15T09:47:03;95792.56;;;0.73
79756;BMP280;69239;50.678;12.280;2024-01-15T09:49:29;95786.97;;;0.85
79756;BMP280;69239;50.678;12.280;2024-01-15T09:51:55;95788.13;;;0.93
79756;BMP280;69239;50.678;12.280;2024-01-15T09:54:22;95786.22;;;0.98
79756;BMP280;69239;50.678;12.280;2024-01-15T09:56:47;95788.25;;;1.01
79756;BMP280;69239;50.678;12.280;2024-01-15T09:59:18;95785.84;;;1.05
79756;BMP280;69239;50.678;12.280;2024-01-15T10:01:44;95777.59;;;1.03
79756;BMP280;69239;50.678;12.280;2024-01-15T10:04:13;95765.22;;;1.00
79756;BMP280;69239;50.678;12.280;2024-01-15T10:06:40;95776.19;;;1.10
79756;BMP280;69239;50.678;12.280;2024-01-15T10:09:09;95772.38;;;1.22
79756;BMP280;69239;50.678;12.280;2024-01-15T10:11:34;95764.13;;;1.47
79756;BMP280;69239;50.678;12.280;2024-01-15T10:14:00;95755.50;;;1.65
79756;BMP280;69239;50.678;12.280;2024-01-15T10:16:26;95754.78;;;1.87
79756;BMP280;69239;50.678;12.280;2024-01-15T10:18:51;95756.81;;;2.40
79756;BMP280;69239;50.678;12.280;2024-01-15T10:21:17;95752.53;;;3.20
79756;BMP280;69239;50.678;12.280;2024-01-15T10:23:42;95741.41;;;3.37
79756;BMP280;69239;50.678;12.280;2024-01-15T10:26:08;95741.31;;;3.51
79756;BMP280;69239;50.678;12.280;2024-01-15T10:28:34;95732.97;;;3.97
79756;BMP280;69239;50.678;12.280;2024-01-15T10:31:00;95742.34;;;4.15
79756;BMP280;69239;50.678;12.280;2024-01-15T10:33:26;95729.50;;;5.59
79756;BMP280;69239;50.678;12.280;2024-01-15T10:35:55;95717.88;;;8.18
79756;BMP280;69239;50.678;12.280;2024-01-15T10:38:22;95690.84;;;10.24
79756;BMP280;69239;50.678;12.280;2024-01-15T10:40:56;95708.13;;;10.48
79756;BMP280;69239;50.678;12.280;2024-01-15T10:43:23;95705.97;;;9.69
79756;BMP280;69239;50.678;12.280;2024-01-15T10:45:49;95713.13;;;8.67
79756;BMP280;69239;50.678;12.280;2024-01-15T10:48:19;95723.28;;;7.69
79756;BMP280;69239;50.678;12.280;2024-01-15T10:50:48;95714.63;;;6.92
79756;BMP280;69239;50.678;12.280;2024-01-15T10:53:16;95722.81;;;6.45
79756;BMP280;69239;50.678;12.280;2024-01-15T10:55:42;95712.22;;;6.09
79756;BMP280;69239;50.678;12.280;2024-01-15T10:58:09;95722.03;;;5.70
79756;BMP280;69239;50.678;12.280;2024-01-15T11:00:35;95717.06;;;5.35
79756;BMP280;69239;50.678;12.280;2024-01-15T11:03:07;95723.47;;;5.08
79756;BMP280;69239;50.678;12.280;2024-01-15T11:05:41;95724.91;;;4.89
79756;BMP280;69239;50.678;12.280;2024-01-15T11:08:07;95720.66;;;4.75
79756;BMP280;69239;50.678;12.280;2024-01-15T11:13:08;95723.47;;;4.53
79756;BMP280;69239;50.678;12.280;2024-01-15T11:16:04;95732.66;;;4.42
79756;BMP280;69239;50.678;12.280;2024-01-15T11:18:37;95737.72;;;4.30
79756;BMP280;69239;50.678;12.280;2024-01-15T11:26:29;95726.22;;;4.39
79756;BMP280;69239;50.678;12.280;2024-01-15T11:28:55;95724.06;;;4.50
79756;BMP280;69239;50.678;12.280;2024-01-15T11:34:02;95713.97;;;4.48
79756;BMP280;69239;50.678;12.280;2024-01-15T11:41:52;95723.19;;;4.20
79756;BMP280;69239;50.678;12.280;2024-01-15T11:44:17;95724.91;;;4.16
79756;BMP280;69239;50.678;12.280;2024-01-15T11:47:08;95729.63;;;4.05
79756;BMP280;69239;50.678;12.280;2024-01-15T11:52:22;95736.81;;;3.91
79756;BMP280;69239;50.678;12.280;2024-01-15T12:00:08;95722.31;;;3.33
79756;BMP280;69239;50.678;12.280;2024-01-15T12:02:34;95717.53;;;3.18
79756;BMP280;69239;50.678;12.280;2024-01-15T12:05:00;95719.44;;;3.03
79756;BMP280;69239;50.678;12.280;2024-01-15T12:07:25;95736.97;;;2.98
79756;BMP280;69239;50.678;12.280;2024-01-15T12:09:50;95731.78;;;2.89
79756;BMP280;69239;50.678;12.280;2024-01-15T12:12:52;95730.78;;;2.76
79756;BMP280;69239;50.678;12.280;2024-01-15T12:15:20;95744.47;;;2.68
79756;BMP280;69239;50.678;12.280;2024-01-15T12:17:45;95730.97;;;2.58
79756;BMP280;69239;50.678;12.280;2024-01-15T12:20:12;95728.13;;;2.45
79756;BMP280;69239;50.678;12.280;2024-01-15T12:22:38;95717.38;;;2.38
79756;BMP280;69239;50.678;12.280;2024-01-15T12:25:04;95724.78;;;2.31
79756;BMP280;69239;50.678;12.280;2024-01-15T12:27:30;95724.00;;;2.22
79756;BMP280;69239;50.678;12.280;2024-01-15T12:29:55;95722.09;;;2.14
79756;BMP280;69239;50.678;12.280;2024-01-15T12:32:20;95705.09;;;2.08
79756;BMP280;69239;50.678;12.280;2024-01-15T12:34:49;95710.56;;;2.06
79756;BMP280;69239;50.678;12.280;2024-01-15T12:37:14;95715.00;;;2.06
79756;BMP280;69239;50.678;12.280;2024-01-15T12:39:43;95713.47;;;2.05
79756;BMP280;69239;50.678;12.280;2024-01-15T12:42:09;95705.94;;;2.03
79756;BMP280;69239;50.678;12.280;2024-01-15T12:44:35;95709.50;;;2.07
79756;BMP280;69239;50.678;12.280;2024-01-15T12:47:06;95703.47;;;2.12
79756;BMP280;69239;50.678;12.280;2024-01-15T12:49:31;95715.38;;;2.13
79756;BMP280;69239;50.678;12.280;2024-01-15T12:51:57;95708.06;;;2.15
79756;BMP280;69239;50.678;12.280;2024-01-15T12:54:23;95692.47;;;2.15
79756;BMP280;69239;50.678;12.280;2024-01-15T12:56:49;95705.16;;;2.16
79756;BMP280;69239;50.678;12.280;2024-01-15T12:59:15;95699.31;;;2.11
79756;BMP280;69239;50.678;12.280;2024-01-15T13:01:40;95713.25;;;2.15
79756;BMP280;69239;50.678;12.280;2024-01-15T13:04:07;95707.09;;;2.11
79756;BMP280;69239;50.678;12.280;2024-01-15T13:06:36;95707.38;;;2.09
79756;BMP280;69239;50.678;12.280;2024-01-15T13:09:03;95709.69;;;2.11
79756;BMP280;69239;50.678;12.280;2024-01-15T13:11:32;95709.69;;;2.11
79756;BMP280;69239;50.678;12.280;2024-01-15T13:13:57;95708.66;;;2.12
79756;BMP280;69239;50.678;12.280;2024-01-15T13:16:23;95693.84;;;2.12
79756;BMP280;69239;50.678;12.280;2024-01-15T13:18:48;95708.44;;;2.08
79756;BMP280;69239;50.678;12.280;2024-01-15T13:21:15;95702.59;;;2.03
79756;BMP280;69239;50.678;12.280;2024-01-15T13:23:40;95707.41;;;1.95
79756;BMP280;69239;50.678;12.280;2024-01-15T13:26:06;95706.94;;;1.93
79756;BMP280;69239;50.678;12.280;2024-01-15T13:28:32;95702.81;;;1.92
79756;BMP280;69239;50.678;12.280;2024-01-15T13:30:57;95713.50;;;1.91
79756;BMP280;69239;50.678;12.280;2024-01-15T13:33:23;95711.16;;;1.89
79756;BMP280;69239;50.678;12.280;2024-01-15T13:35:48;95712.84;;;1.85
79756;BMP280;69239;50.678;12.280;2024-01-15T13:38:16;95715.59;;;1.89
79756;BMP280;69239;50.678;12.280;2024-01-15T13:40:42;95707.53;;;1.90
79756;BMP280;69239;50.678;12.280;2024-01-15T13:43:10;95708.09;;;1.87
79756;BMP280;69239;50.678;12.280;2024-01-15T13:45:35;95711.41;;;1.79
79756;BMP280;69239;50.678;12.280;2024-01-15T13:48:04;95716.41;;;1.76
79756;BMP280;69239;50.678;12.280;2024-01-15T13:50:33;95720.34;;;1.73
79756;BMP280;69239;50.678;12.280;2024-01-15T13:52:59;95711.59;;;1.69
79756;BMP280;69239;50.678;12.280;2024-01-15T13:55:24;95711.91;;;1.67
79756;BMP280;69239;50.678;12.280;2024-01-15T13:57:50;95710.19;;;1.63
79756;BMP280;69239;50.678;12.280;2024-01-15T14:00:15;95713.94;;;1.57
79756;BMP280;69239;50.678;12.280;2024-01-15T14:02:44;95720.06;;;1.61
79756;BMP280;69239;50.678;12.280;2024-01-15T14:05:09;95723.72;;;1.60
79756;BMP280;69239;50.678;12.280;2024-01-15T14:07:38;95736.19;;;1.58
79756;BMP280;69239;50.678;12.280;2024-01-15T14:10:05;95737.34;;;1.52
79756;BMP280;69239;50.678;12.280;2024-01-15T14:12:30;95738.69;;;1.49
79756;BMP280;69239;50.678;12.280;2024-01-15T14:14:56;95725.16;;;1.38
79756;BMP280;69239;50.678;12.280;2024-01-15T14:17:21;95734.38;;;1.45
79756;BMP280;69239;50.678;12.280;2024-01-15T14:19:46;95735.97;;;1.40
79756;BMP280;69239;50.678;12.280;2024-01-15T14:22:12;95745.59;;;1.40